Knott, Texas
Current Conditions -  °F | °C
As of 4:35 AM on Friday 21 Nov 2014 (Local Time) from KBPG Reporting Station
Overcast Overcast  
Wind Chill: 53°   Ceiling: 100
Heat Index: 53°   Visibility: 1mi
Dew Point: 51°   Wind: 9mph
Humidity: 93%   Direction: 160°SSE
Pressure: 30.02"   Gusts: NA
Location:  32.4°N, 101.64°W
Report Text: KBPG 211035Z AUTO 16008KT 1SM OVC001 12/11 A3002 RMK AO2 LTG DSNT W T01180107
Loading
Personal Weather Stations






























Interactive Weather Map New forecast layout! Learn more

10-Day Weather Forecast

Advertisements
Track Severe Weather on mobile